Time;durP1;ratioP1;P1;durP2;ratioP2;P2;SDS_P1;SDS_P2;PMS_P1;PMS_P2;Temp;Humidity;BMP_temperature;BMP_pressure;BME280_temperature;BME280_humidity;BME280_pressure;Samples;Min_cycle;Max_cycle;Signal;HPM_P1;HPM_P2
2023/04/13 00:02:20;;;;;;;4.40;2.63;;;;;;;;;;4984646;28;20801;-69
2023/04/13 00:04:49;;;;;;;5.70;2.38;;;;;;;;;;4990935;28;20046;-69
2023/04/13 00:07:15;;;;;;;3.35;1.90;;;;;;;;;;4993272;28;20152;-69
2023/04/13 00:09:44;;;;;;;5.50;2.88;;;;;;;;;;4996645;28;20057;-69
2023/04/13 00:12:11;;;;;;;3.63;2.20;;;;;;;;;;4985742;28;20050;-69
2023/04/13 00:14:38;;;;;;;2.83;2.20;;;;;;;;;;4986149;28;20053;-69
2023/04/13 00:17:04;;;;;;;3.72;2.13;;;;;;;;;;4981556;28;20404;-69
2023/04/13 00:19:35;;;;;;;3.53;2.00;;;;;;;;;;4993494;28;20046;-69
2023/04/13 00:22:02;;;;;;;4.22;1.80;;;;;;;;;;4972288;28;20679;-69
2023/04/13 00:24:28;;;;;;;3.38;2.25;;;;;;;;;;4998961;28;20034;-69
2023/04/13 00:26:55;;;;;;;3.72;2.15;;;;;;;;;;4986244;28;20053;-69
2023/04/13 00:29:22;;;;;;;1.92;1.50;;;;;;;;;;4978740;28;20061;-69
2023/04/13 00:31:48;;;;;;;3.55;1.90;;;;;;;;;;4985085;28;20045;-69
2023/04/13 00:34:14;;;;;;;3.92;1.63;;;;;;;;;;4978698;28;20042;-69
2023/04/13 00:36:39;;;;;;;2.28;2.08;;;6.90;99.90;;;;;;4987055;28;20041;-69
2023/04/13 00:39:06;;;;;;;2.03;1.70;;;;;;;;;;5004711;28;20042;-69
2023/04/13 00:41:32;;;;;;;5.13;1.98;;;;;;;;;;4965362;28;20495;-69
2023/04/13 00:43:58;;;;;;;3.95;2.00;;;;;;;;;;4982233;28;20107;-69
2023/04/13 00:46:24;;;;;;;6.68;2.20;;;;;;;;;;4985585;28;20053;-69
2023/04/13 00:48:51;;;;;;;5.05;1.95;;;;;;;;;;5002232;28;20038;-68
2023/04/13 00:51:17;;;;;;;5.90;2.20;;;;;;;;;;4982909;28;20683;-69
2023/04/13 00:53:44;;;;;;;4.53;2.00;;;;;;;;;;4994778;28;20818;-69
2023/04/13 00:56:10;;;;;;;5.43;1.80;;;;;;;;;;4982819;28;20046;-69
2023/04/13 00:58:37;;;;;;;2.67;1.27;;;;;;;;;;5001720;28;20139;-69
2023/04/13 01:01:03;;;;;;;4.85;2.13;;;;;;;;;;4998858;28;20056;-69
2023/04/13 01:03:29;;;;;;;3.38;2.25;;;;;;;;;;4984025;28;20084;-69
2023/04/13 01:06:02;;;;;;;4.43;1.65;;;;;;;;;;4995060;28;20904;-69
2023/04/13 01:08:31;;;;;;;2.88;2.20;;;;;;;;;;4990625;28;20779;-69
2023/04/13 01:11:02;;;;;;;4.32;1.77;;;;;;;;;;4971054;28;20042;-69
2023/04/13 01:13:55;;;;;;;3.55;1.92;;;6.70;99.90;;;;;;4994348;28;20575;-69
2023/04/13 01:16:26;;;;;;;5.70;1.63;;;;;;;;;;4974516;28;20058;-69
2023/04/13 01:18:53;;;;;;;5.70;1.70;;;;;;;;;;5000961;28;20042;-69
2023/04/13 01:21:21;;;;;;;4.00;1.48;;;;;;;;;;4996377;28;20052;-69
2023/04/13 01:24:06;;;;;;;4.72;1.90;;;;;;;;;;4982494;28;20822;-69
2023/04/13 01:26:37;;;;;;;3.45;1.73;;;;;;;;;;4981731;28;20048;-69
2023/04/13 01:29:03;;;;;;;2.88;2.17;;;7.00;99.90;;;;;;4980768;28;20584;-69
2023/04/13 01:31:31;;;;;;;6.10;2.20;;;;;;;;;;4973498;28;20126;-69
2023/04/13 01:33:57;;;;;;;5.22;1.92;;;;;;;;;;4975574;28;20053;-69
2023/04/13 01:36:23;;;;;;;7.38;2.05;;;6.70;99.90;;;;;;4982412;28;20046;-69
2023/04/13 01:38:49;;;;;;;6.22;2.10;;;;;;;;;;4984206;28;20073;-69
2023/04/13 01:41:15;;;;;;;6.32;2.22;;;6.70;99.90;;;;;;5002035;28;20439;-69
2023/04/13 01:43:41;;;;;;;2.97;2.05;;;;;;;;;;4983694;28;20054;-69
2023/04/13 01:46:10;;;;;;;4.20;2.03;;;;;;;;;;5002049;28;20046;-69
2023/04/13 01:48:45;;;;;;;5.80;2.03;;;;;;;;;;4976011;28;20105;-69
2023/04/13 01:51:13;;;;;;;5.22;2.60;;;;;;;;;;4977021;28;20052;-69
2023/04/13 01:53:44;;;;;;;2.25;2.05;;;;;;;;;;4982191;28;20053;-69
2023/04/13 01:56:11;;;;;;;5.53;2.00;;;;;;;;;;4951483;28;20045;-69
2023/04/13 01:58:39;;;;;;;4.15;2.10;;;;;;;;;;4977156;28;20587;-69
2023/04/13 02:01:06;;;;;;;2.65;2.00;;;;;;;;;;4995138;28;20499;-69
2023/04/13 02:03:33;;;;;;;5.85;2.50;;;;;;;;;;5003746;28;20151;-69
2023/04/13 02:06:02;;;;;;;4.53;2.17;;;;;;;;;;4983459;28;20046;-69
2023/04/13 02:08:30;;;;;;;5.22;2.38;;;;;;;;;;4980432;28;20046;-69
2023/04/13 02:10:56;;;;;;;5.85;2.15;;;;;;;;;;4979891;28;20081;-69
2023/04/13 02:13:24;;;;;;;4.03;1.58;;;;;;;;;;4998678;28;20081;-69
2023/04/13 02:15:51;;;;;;;3.65;1.85;;;;;;;;;;5004874;28;20069;-69
2023/04/13 02:18:18;;;;;;;4.75;1.40;;;;;;;;;;4983745;28;20078;-69
2023/04/13 02:20:44;;;;;;;2.45;1.55;;;;;;;;;;4983067;28;20046;-69
2023/04/13 02:23:13;;;;;;;4.25;2.05;;;;;;;;;;5006030;28;20113;-69
2023/04/13 02:25:40;;;;;;;3.13;2.03;;;;;;;;;;4997604;28;20065;-69
2023/04/13 02:28:07;;;;;;;4.00;1.88;;;;;;;;;;4986032;28;20531;-69
2023/04/13 02:30:33;;;;;;;2.83;1.98;;;;;;;;;;4982473;28;20050;-69
2023/04/13 02:32:59;;;;;;;4.97;1.92;;;;;;;;;;4988359;28;20053;-69
2023/04/13 02:35:26;;;;;;;4.95;1.98;;;;;;;;;;5005838;28;20050;-69
2023/04/13 02:37:52;;;;;;;4.68;1.83;;;;;;;;;;4998690;28;20044;-69
2023/04/13 02:40:19;;;;;;;2.13;1.70;;;;;;;;;;4984679;28;20045;-69
2023/04/13 02:42:45;;;;;;;3.00;1.48;;;;;;;;;;5008138;28;20048;-69
2023/04/13 02:45:13;;;;;;;4.22;2.25;;;;;;;;;;4989779;28;20129;-69
2023/04/13 02:47:39;;;;;;;3.65;1.65;;;;;;;;;;4986955;28;20052;-69
2023/04/13 02:50:05;;;;;;;3.17;1.85;;;6.50;99.90;;;;;;5000971;28;20050;-69
2023/04/13 02:52:31;;;;;;;5.20;2.10;;;;;;;;;;4985717;28;20049;-69
2023/04/13 02:54:57;;;;;;;3.35;1.90;;;;;;;;;;4990190;28;20215;-69
2023/04/13 02:57:24;;;;;;;2.78;2.25;;;;;;;;;;5005295;28;20045;-69
2023/04/13 02:59:50;;;;;;;3.60;1.85;;;;;;;;;;4984924;28;20117;-69
2023/04/13 03:02:16;;;;;;;3.55;2.40;;;;;;;;;;4984125;28;20053;-69
2023/04/13 03:04:43;;;;;;;5.32;2.28;;;;;;;;;;5004016;28;20042;-69
2023/04/13 03:07:09;;;;;;;3.75;2.30;;;;;;;;;;5007934;28;20046;-69
2023/04/13 03:09:41;;;;;;;3.65;1.75;;;;;;;;;;5004791;28;20598;-69
2023/04/13 03:12:08;;;;;;;3.33;2.20;;;;;;;;;;4969651;28;20174;-69
2023/04/13 03:14:35;;;;;;;2.63;2.00;;;;;;;;;;4983517;28;20077;-69
2023/04/13 03:17:01;;;;;;;4.28;2.33;;;;;;;;;;4979839;28;20044;-69
2023/04/13 03:19:27;;;;;;;2.20;1.90;;;;;;;;;;4971522;28;20420;-69
2023/04/13 03:21:54;;;;;;;2.47;2.03;;;;;;;;;;4997189;28;20042;-69
2023/04/13 03:24:20;;;;;;;3.88;2.03;;;;;;;;;;4980904;28;20508;-69
2023/04/13 03:26:45;;;;;;;4.40;2.33;;;6.50;99.90;;;;;;4978310;28;20081;-69
2023/04/13 03:29:12;;;;;;;3.80;2.00;;;;;;;;;;4982493;28;20582;-69
2023/04/13 03:31:38;;;;;;;4.00;2.65;;;;;;;;;;4999905;28;20107;-69
2023/04/13 03:34:03;;;;;;;4.32;2.75;;;;;;;;;;4982583;28;20042;-69
2023/04/13 03:36:30;;;;;;;3.65;2.17;;;;;;;;;;4983667;28;20486;-69
2023/04/13 03:38:57;;;;;;;2.88;2.10;;;;;;;;;;5002879;28;20164;-69
2023/04/13 03:41:22;;;;;;;3.00;2.70;;;6.60;99.90;;;;;;4986151;28;20454;-69
2023/04/13 03:43:48;;;;;;;4.65;2.40;;;;;;;;;;4990468;28;20125;-69
2023/04/13 03:46:15;;;;;;;4.03;2.20;;;;;;;;;;4973780;28;20060;-69
2023/04/13 03:48:41;;;;;;;3.97;2.65;;;;;;;;;;4994918;28;20081;-69
2023/04/13 03:51:07;;;;;;;6.40;2.50;;;;;;;;;;4991359;28;20070;-69
2023/04/13 03:53:36;;;;;;;4.22;2.65;;;;;;;;;;4954228;28;20058;-69
2023/04/13 03:56:02;;;;;;;3.38;2.50;;;;;;;;;;4975359;28;20046;-69
2023/04/13 03:58:28;;;;;;;2.78;2.47;;;;;;;;;;4986387;28;20492;-69
2023/04/13 04:00:55;;;;;;;4.30;2.53;;;;;;;;;;5000245;28;20037;-69
2023/04/13 04:03:24;;;;;;;3.75;2.88;;;;;;;;;;4993036;28;20057;-69
2023/04/13 04:05:50;;;;;;;3.92;2.58;;;;;;;;;;4981702;28;20049;-69
2023/04/13 04:08:16;;;;;;;5.22;3.72;;;;;;;;;;4975388;28;20140;-69
2023/04/13 04:10:42;;;;;;;4.47;3.25;;;;;;;;;;4974749;28;20411;-68
2023/04/13 04:13:08;;;;;;;4.13;2.78;;;;;;;;;;4972422;28;20038;-68
2023/04/13 04:15:34;;;;;;;3.95;3.35;;;;;;;;;;5001025;28;20443;-68
2023/04/13 04:18:00;;;;;;;4.53;4.03;;;;;;;;;;5001801;28;20037;-68
2023/04/13 04:20:27;;;;;;;4.05;3.10;;;;;;;;;;4997722;28;20053;-68
2023/04/13 04:22:53;;;;;;;6.00;3.90;;;;;;;;;;4986191;28;20049;-69
2023/04/13 04:25:22;;;;;;;6.22;3.90;;;;;;;;;;4986129;28;20045;-68
2023/04/13 04:27:49;;;;;;;5.72;3.90;;;;;;;;;;4982033;28;20041;-68
2023/04/13 04:30:17;;;;;;;9.20;4.20;;;;;;;;;;4974533;28;20050;-68
2023/04/13 04:32:43;;;;;;;6.53;3.72;;;;;;;;;;4972915;28;20050;-68
2023/04/13 04:35:13;;;;;;;7.68;4.22;;;;;;;;;;4972581;28;20160;-68
2023/04/13 04:37:39;;;;;;;5.00;4.10;;;6.30;99.90;;;;;;4976927;28;20073;-68
2023/04/13 04:40:09;;;;;;;5.68;3.97;;;;;;;;;;4979447;28;20042;-68
2023/04/13 04:42:37;;;;;;;5.28;4.00;;;6.30;99.90;;;;;;4996247;28;20064;-69
2023/04/13 04:45:04;;;;;;;7.68;4.32;;;6.20;99.90;;;;;;5003742;28;20085;-68
2023/04/13 04:47:31;;;;;;;6.50;3.97;;;6.20;99.90;;;;;;4994117;28;20046;-68
2023/04/13 04:49:57;;;;;;;6.93;4.70;;;;;;;;;;4986673;28;20049;-68
2023/04/13 04:52:26;;;;;;;6.78;3.92;;;;;;;;;;4985880;28;20060;-68
2023/04/13 04:54:52;;;;;;;7.00;3.90;;;;;;;;;;4992992;28;20050;-68
2023/04/13 04:57:18;;;;;;;9.98;4.50;;;6.20;99.90;;;;;;4974358;28;20042;-69
2023/04/13 04:59:44;;;;;;;5.20;4.18;;;;;;;;;;4972407;28;20496;-68
2023/04/13 05:02:10;;;;;;;8.50;5.18;;;;;;;;;;4997976;28;20053;-68
2023/04/13 05:04:36;;;;;;;8.68;4.57;;;;;;;;;;4982304;28;20050;-68
2023/04/13 05:07:02;;;;;;;6.20;3.67;;;;;;;;;;4976638;28;20053;-68
2023/04/13 05:09:28;;;;;;;8.15;4.40;;;;;;;;;;5002983;28;20426;-68
2023/04/13 05:11:55;;;;;;;7.85;3.28;;;6.20;99.90;;;;;;5002732;28;20042;-68
2023/04/13 05:14:20;;;;;;;10.68;4.25;;;6.30;99.90;;;;;;4979084;28;20050;-68
2023/04/13 05:16:46;;;;;;;9.80;3.17;;;;;;;;;;4985476;28;20116;-68
2023/04/13 05:19:12;;;;;;;8.73;3.47;;;;;;;;;;4983752;28;20496;-68
2023/04/13 05:21:38;;;;;;;5.82;3.42;;;;;;;;;;4976753;28;20126;-68
2023/04/13 05:24:04;;;;;;;8.50;3.25;;;;;;;;;;4992615;28;20053;-68
2023/04/13 05:26:30;;;;;;;9.95;2.85;;;;;;;;;;4975976;28;20081;-68
2023/04/13 05:28:56;;;;;;;6.30;3.10;;;;;;;;;;4994107;28;20411;-69
2023/04/13 05:31:23;;;;;;;9.07;4.35;;;;;;;;;;4978046;28;20534;-68
2023/04/13 05:33:49;;;;;;;9.18;3.17;;;;;;;;;;4972651;28;20518;-68
2023/04/13 05:36:15;;;;;;;9.25;3.67;;;;;;;;;;5005076;28;20205;-68
2023/04/13 05:38:42;;;;;;;5.40;3.10;;;;;;;;;;5001214;28;20057;-68
2023/04/13 05:41:09;;;;;;;5.45;3.00;;;6.80;99.90;;;;;;4980560;28;20048;-68
2023/04/13 05:43:35;;;;;;;8.00;3.42;;;;;;;;;;5002118;28;20132;-68
2023/04/13 05:46:01;;;;;;;8.63;3.92;;;;;;;;;;5004851;28;20567;-68
2023/04/13 05:48:27;;;;;;;8.75;3.60;;;;;;;;;;4983381;28;20041;-68
2023/04/13 05:50:59;;;;;;;8.50;3.88;;;;;;;;;;4977547;28;20042;-68
2023/04/13 05:53:25;;;;;;;8.80;4.30;;;;;;;;;;4991877;28;20413;-68
2023/04/13 05:55:52;;;;;;;8.98;4.30;;;;;;;;;;4980598;28;20583;-69
2023/04/13 05:58:18;;;;;;;8.90;4.05;;;;;;;;;;4998902;28;20052;-68
2023/04/13 06:00:45;;;;;;;7.28;4.57;;;;;;;;;;4982179;28;20130;-68
2023/04/13 06:03:11;;;;;;;9.13;4.55;;;;;;;;;;4975074;28;20104;-68
2023/04/13 06:05:37;;;;;;;7.88;4.68;;;;;;;;;;4985342;28;20056;-69
2023/04/13 06:08:03;;;;;;;8.82;5.20;;;;;;;;;;4974795;28;20069;-68
2023/04/13 06:10:30;;;;;;;8.07;4.00;;;;;;;;;;4976665;28;20057;-68
2023/04/13 06:12:56;;;;;;;8.48;4.45;;;;;;;;;;4984607;28;20052;-68
2023/04/13 06:15:21;;;;;;;9.93;4.53;;;7.50;99.90;;;;;;4979177;28;20038;-68
2023/04/13 06:17:50;;;;;;;9.50;3.90;;;;;;;;;;4980573;28;20034;-68
2023/04/13 06:20:16;;;;;;;9.93;4.25;;;;;;;;;;4972321;28;20129;-68
2023/04/13 06:22:42;;;;;;;9.23;4.63;;;;;;;;;;5001850;28;20125;-69
2023/04/13 06:25:11;;;;;;;10.73;5.03;;;;;;;;;;4981546;28;20049;-69
2023/04/13 06:27:37;;;;;;;13.02;6.13;;;;;;;;;;4983475;28;20456;-69
2023/04/13 06:30:05;;;;;;;12.32;5.72;;;9.20;99.90;;;;;;5001023;28;20104;-69
2023/04/13 06:32:31;;;;;;;23.90;6.70;;;;;;;;;;4980841;28;20420;-69
2023/04/13 06:34:57;;;;;;;15.90;6.65;;;;;;;;;;4992098;28;20117;-69
2023/04/13 06:37:23;;;;;;;13.93;6.85;;;;;;;;;;4995980;28;20555;-69
2023/04/13 06:39:50;;;;;;;15.60;7.68;;;;;;;;;;4982144;28;20180;-69
2023/04/13 06:42:17;;;;;;;17.70;7.13;;;;;;;;;;4976886;28;20060;-68
2023/04/13 06:44:43;;;;;;;14.00;6.20;;;;;;;;;;4996301;28;20046;-69
2023/04/13 06:47:09;;;;;;;16.17;6.20;;;;;;;;;;4976796;28;20448;-69
2023/04/13 06:49:35;;;;;;;14.38;5.40;;;;;;;;;;4984725;28;20045;-69
2023/04/13 06:52:01;;;;;;;14.73;5.13;;;;;;;;;;4974346;28;20057;-69
2023/04/13 06:54:27;;;;;;;11.32;4.75;;;9.40;99.90;;;;;;5002090;28;20054;-69
2023/04/13 06:56:53;;;;;;;8.60;5.00;;;;;;;;;;4995725;28;20030;-68
2023/04/13 06:59:19;;;;;;;9.82;4.32;;;;;;;;;;4973752;28;20107;-68
2023/04/13 07:01:46;;;;;;;7.22;3.22;;;;;;;;;;4995900;28;20060;-69
2023/04/13 07:04:12;;;;;;;8.93;3.13;;;;;;;;;;4976915;28;20054;-69
2023/04/13 07:06:38;;;;;;;10.20;4.50;;;;;;;;;;4969295;28;20127;-68
2023/04/13 07:09:04;;;;;;;6.75;2.75;;;9.40;99.90;;;;;;4975907;28;20042;-69
2023/04/13 07:11:30;;;;;;;10.07;2.75;;;;;;;;;;4975284;28;20049;-68
2023/04/13 07:13:56;;;;;;;6.72;2.20;;;;;;;;;;4999081;28;20048;-68
2023/04/13 07:16:22;;;;;;;6.72;3.13;;;;;;;;;;4980566;28;20496;-68
2023/04/13 07:18:48;;;;;;;9.07;3.33;;;;;;;;;;4980869;28;20041;-68
2023/04/13 07:21:14;;;;;;;6.10;3.13;;;;;;;;;;4978602;28;20050;-68
2023/04/13 07:23:41;;;;;;;7.82;2.83;;;;;;;;;;4984161;28;20069;-68
2023/04/13 07:26:11;;;;;;;10.95;3.30;;;;;;;;;;4992590;28;20077;-68
2023/04/13 07:28:37;;;;;;;8.02;2.67;;;;;;;;;;4975376;28;20042;-68
2023/04/13 07:31:05;;;;;;;9.23;2.63;;;;;;;;;;4978911;28;20798;-68
2023/04/13 07:33:31;;;;;;;6.20;2.95;;;9.00;99.90;;;;;;4975384;28;20042;-68
2023/04/13 07:35:57;;;;;;;7.95;2.95;;;;;;;;;;4982022;28;20068;-68
2023/04/13 07:38:23;;;;;;;7.13;2.75;;;;;;;;;;4976634;28;20492;-68
2023/04/13 07:40:49;;;;;;;6.50;2.40;;;;;;;;;;4980854;28;20049;-68
2023/04/13 07:43:15;;;;;;;8.63;2.47;;;7.80;99.90;;;;;;4993981;28;20452;-68
2023/04/13 07:45:41;;;;;;;7.32;3.40;;;;;;;;;;4995954;28;20141;-68
2023/04/13 07:48:07;;;;;;;6.32;2.42;;;;;;;;;;4994166;28;20503;-68
2023/04/13 07:50:39;;;;;;;8.07;2.60;;;;;;;;;;4995571;28;20042;-71
2023/04/13 07:53:05;;;;;;;6.55;2.40;;;;;;;;;;4999365;28;20061;-69
2023/04/13 07:55:31;;;;;;;4.50;2.42;;;;;;;;;;4971731;28;20050;-69
2023/04/13 07:57:58;;;;;;;8.52;2.10;;;;;;;;;;4993289;28;20494;-71
2023/04/13 08:00:24;;;;;;;6.20;2.10;;;;;;;;;;4976104;28;20420;-70
2023/04/13 08:02:50;;;;;;;3.22;1.98;;;;;;;;;;4976489;28;20097;-68
2023/04/13 08:05:16;;;;;;;3.75;2.10;;;;;;;;;;5003605;28;20046;-68
2023/04/13 08:07:45;;;;;;;4.72;2.50;;;;;;;;;;4991802;28;20042;-68
2023/04/13 08:10:11;;;;;;;5.55;2.13;;;;;;;;;;5000934;28;20526;-67
2023/04/13 08:12:37;;;;;;;10.77;2.55;;;;;;;;;;4976147;28;20045;-67
2023/04/13 08:15:03;;;;;;;5.97;2.28;;;;;;;;;;4979156;28;20638;-67
2023/04/13 08:17:30;;;;;;;6.10;1.95;;;;;;;;;;4964977;28;20038;-67
2023/04/13 08:19:56;;;;;;;7.88;3.00;;;;;;;;;;4976045;28;20050;-67
2023/04/13 08:22:22;;;;;;;5.22;2.38;;;;;;;;;;4991028;28;20038;-67
2023/04/13 08:24:48;;;;;;;9.05;3.13;;;;;;;;;;4986513;28;20153;-67
2023/04/13 08:27:14;;;;;;;7.88;2.88;;;;;;;;;;4989703;28;20129;-67
2023/04/13 08:29:40;;;;;;;5.32;2.25;;;;;;;;;;4984773;28;20061;-67
2023/04/13 08:32:06;;;;;;;6.13;2.90;;;;;;;;;;4987165;28;20054;-67
2023/04/13 08:34:32;;;;;;;3.72;2.97;;;;;;;;;;4986033;28;20469;-67
2023/04/13 08:36:58;;;;;;;8.43;4.53;;;;;;;;;;4971786;28;20131;-67
2023/04/13 08:39:24;;;;;;;7.05;3.30;;;;;;;;;;4965233;28;20052;-67
2023/04/13 08:41:50;;;;;;;5.85;3.20;;;;;;;;;;4989142;28;20081;-67
2023/04/13 08:44:16;;;;;;;6.53;2.08;;;8.40;99.90;;;;;;4989492;28;20046;-67
2023/04/13 08:46:44;;;;;;;3.85;2.10;;;;;;;;;;4994437;28;20038;-67
2023/04/13 08:49:11;;;;;;;4.10;2.03;;;;;;;;;;4974813;28;20042;-67
2023/04/13 08:51:37;;;;;;;3.00;1.38;;;;;;;;;;4972736;28;20042;-67
2023/04/13 08:54:04;;;;;;;2.58;1.45;;;;;;;;;;4974074;28;20046;-67
2023/04/13 08:56:30;;;;;;;5.82;1.23;;;;;;;;;;4979478;28;20053;-67
2023/04/13 08:59:02;;;;;;;5.53;1.90;;;;;;;;;;4958878;28;20096;-67
2023/04/13 09:01:28;;;;;;;3.22;1.52;;;;;;;;;;4997318;28;20033;-67
2023/04/13 09:03:55;;;;;;;6.82;1.52;;;;;;;;;;4978464;28;20101;-67
2023/04/13 09:06:31;;;;;;;5.40;1.90;;;;;;;;;;4991439;28;20137;-67
2023/04/13 09:08:59;;;;;;;5.80;1.83;;;;;;;;;;4976591;28;20056;-67
2023/04/13 09:11:25;;;;;;;5.15;1.95;;;;;;;;;;4992201;28;20050;-67
2023/04/13 09:13:51;;;;;;;6.07;1.88;;;;;;;;;;4999972;28;20497;-67
2023/04/13 09:16:21;;;;;;;6.10;1.92;;;;;;;;;;4981843;28;20378;-67
2023/04/13 09:18:48;;;;;;;4.57;2.10;;;;;;;;;;4971811;28;20140;-67
2023/04/13 09:21:14;;;;;;;2.38;1.52;;;;;;;;;;5003986;28;20065;-67
2023/04/13 09:23:42;;;;;;;6.35;1.73;;;;;;;;;;4995933;28;20446;-68
2023/04/13 09:26:08;;;;;;;4.45;1.52;;;;;;;;;;5002318;28;20117;-68
2023/04/13 09:28:45;;;;;;;5.95;1.92;;;;;;;;;;4979646;28;20085;-68
2023/04/13 09:31:12;;;;;;;3.40;1.63;;;10.80;99.90;;;;;;4976862;28;20093;-69
2023/04/13 09:33:48;;;;;;;5.50;1.83;;;;;;;;;;4968295;28;20488;-69
2023/04/13 09:36:15;;;;;;;3.17;1.33;;;;;;;;;;4994397;28;20046;-69
2023/04/13 09:38:45;;;;;;;4.85;1.40;;;;;;;;;;4992987;28;20428;-70
2023/04/13 09:41:11;;;;;;;4.95;1.50;;;;;;;;;;4979879;28;20480;-70
2023/04/13 09:43:37;;;;;;;7.07;1.85;;;;;;;;;;4977803;28;20404;-70
2023/04/13 09:46:13;;;;;;;6.40;1.58;;;;;;;;;;4981601;28;20165;-70
2023/04/13 09:48:55;;;;;;;6.40;1.80;;;;;;;;;;4973883;28;20491;-70
2023/04/13 09:51:21;;;;;;;5.00;1.50;;;;;;;;;;4965641;28;20082;-70
2023/04/13 09:53:48;;;;;;;6.65;1.92;;;;;;;;;;4983479;28;20105;-70
2023/04/13 09:56:15;;;;;;;5.05;1.88;;;;;;;;;;4980682;28;20136;-71
2023/04/13 09:58:44;;;;;;;5.68;1.80;;;;;;;;;;4978029;28;20046;-70
2023/04/13 10:01:10;;;;;;;5.28;1.83;;;;;;;;;;4979723;28;20440;-71
2023/04/13 10:03:37;;;;;;;6.60;2.08;;;;;;;;;;4977261;28;20317;-70
2023/04/13 10:06:07;;;;;;;8.40;1.67;;;;;;;;;;4982103;28;20121;-70
2023/04/13 10:08:45;;;;;;;4.38;1.85;;;;;;;;;;4986556;28;20124;-70
2023/04/13 10:11:13;;;;;;;3.97;1.20;;;9.90;99.90;;;;;;4978005;28;20058;-70
2023/04/13 10:14:01;;;;;;;2.05;1.00;;;9.80;99.90;;;;;;4970251;28;20054;-70
2023/04/13 10:16:45;;;;;;;1.40;0.75;;;;;;;;;;4977103;28;20050;-70
2023/04/13 10:19:14;;;;;;;3.03;1.10;;;9.40;99.90;;;;;;4977113;28;20060;-70
2023/04/13 10:21:42;;;;;;;4.22;1.25;;;;;;;;;;4994963;28;20172;-70
2023/04/13 10:24:12;;;;;;;4.93;1.23;;;;;;;;;;4980240;28;20080;-70
2023/04/13 10:26:39;;;;;;;2.92;1.20;;;;;;;;;;4991746;28;20113;-70
2023/04/13 10:29:07;;;;;;;3.92;1.55;;;;;;;;;;4986822;28;20053;-69
2023/04/13 10:31:36;;;;;;;4.32;1.42;;;;;;;;;;4977990;28;20048;-69
2023/04/13 10:34:04;;;;;;;4.47;1.33;;;;;;;;;;4971151;28;20415;-69
2023/04/13 10:36:40;;;;;;;8.93;2.25;;;;;;;;;;4992418;28;20124;-70
2023/04/13 10:39:08;;;;;;;9.73;2.53;;;;;;;;;;4984044;28;20050;-70
2023/04/13 10:41:37;;;;;;;7.97;2.05;;;;;;;;;;4995718;28;20073;-70
2023/04/13 10:44:07;;;;;;;11.50;2.50;;;9.10;99.90;;;;;;4983349;28;20049;-70
2023/04/13 10:46:34;;;;;;;11.48;2.50;;;;;;;;;;4978677;28;20046;-70
2023/04/13 10:49:01;;;;;;;14.85;3.47;;;;;;;;;;4972477;28;20535;-69
2023/04/13 10:51:37;;;;;;;9.50;2.80;;;;;;;;;;4980985;28;20092;-70
2023/04/13 10:54:04;;;;;;;8.60;2.47;;;;;;;;;;4975004;28;20046;-69
2023/04/13 10:56:30;;;;;;;9.15;2.63;;;;;;;;;;4970862;28;20069;-70
2023/04/13 10:58:56;;;;;;;12.32;3.17;;;;;;;;;;4977403;28;20626;-70
2023/04/13 11:01:22;;;;;;;16.25;2.92;;;10.40;99.90;;;;;;4998738;28;20065;-69
2023/04/13 11:03:49;;;;;;;12.98;2.83;;;10.40;99.90;;;;;;4979412;28;20668;-70
2023/04/13 11:06:16;;;;;;;11.95;2.55;;;;;;;;;;4987799;28;20554;-70
2023/04/13 11:08:42;;;;;;;10.93;2.40;;;;;;;;;;4986384;28;20720;-70
2023/04/13 11:11:10;;;;;;;14.98;3.30;;;;;;;;;;4974794;28;20089;-70
2023/04/13 11:13:43;;;;;;;12.50;2.75;;;;;;;;;;4994845;28;20116;-70
2023/04/13 11:16:09;;;;;;;12.68;2.90;;;;;;;;;;4978899;28;20525;-70
2023/04/13 11:18:35;;;;;;;10.57;2.83;;;;;;;;;;4996372;28;20048;-69
2023/04/13 11:21:04;;;;;;;10.35;2.03;;;;;;;;;;4989754;28;20062;-70
2023/04/13 11:23:33;;;;;;;10.65;2.55;;;;;;;;;;4996739;28;20040;-70
2023/04/13 11:26:00;;;;;;;13.57;2.50;;;10.60;99.90;;;;;;4970942;28;20504;-70
2023/04/13 11:28:40;;;;;;;11.32;2.42;;;;;;;;;;5001010;28;20423;-70
2023/04/13 11:31:07;;;;;;;13.07;3.15;;;;;;;;;;4956921;28;20050;-70
2023/04/13 11:33:34;;;;;;;12.75;3.15;;;;;;;;;;4971813;28;20049;-70
2023/04/13 11:36:01;;;;;;;7.50;1.95;;;;;;;;;;4972237;28;20043;-70
2023/04/13 11:38:27;;;;;;;8.05;1.95;;;;;;;;;;4972013;28;20542;-69
2023/04/13 11:41:00;;;;;;;9.05;2.55;;;10.40;99.90;;;;;;4978211;28;20221;-69
2023/04/13 11:43:26;;;;;;;12.48;2.45;;;;;;;;;;4995514;28;20046;-70
2023/04/13 11:45:53;;;;;;;9.70;2.60;;;;;;;;;;4981592;28;20049;-70
2023/04/13 11:48:19;;;;;;;10.15;3.05;;;;;;;;;;4980279;28;20487;-70
2023/04/13 11:50:45;;;;;;;7.03;1.92;;;10.80;99.90;;;;;;4987389;28;20488;-70
2023/04/13 11:53:12;;;;;;;9.82;2.20;;;;;;;;;;4982966;28;20058;-70
2023/04/13 11:55:39;;;;;;;9.88;2.42;;;10.80;99.90;;;;;;4978597;28;20046;-70
2023/04/13 11:58:09;;;;;;;9.82;1.80;;;10.90;99.90;;;;;;4970294;28;20113;-70
2023/04/13 12:00:39;;;;;;;5.93;1.45;;;;;;;;;;4982792;28;20042;-70
2023/04/13 12:03:12;;;;;;;11.27;2.40;;;;;;;;;;4975044;28;20127;-70
2023/04/13 12:05:38;;;;;;;13.52;2.42;;;;;;;;;;4967691;28;20046;-70
2023/04/13 12:08:04;;;;;;;13.05;2.88;;;;;;;;;;4974405;28;20045;-70
2023/04/13 12:10:33;;;;;;;9.25;2.45;;;10.70;99.90;;;;;;4979286;28;20101;-70
2023/04/13 12:13:01;;;;;;;11.30;2.20;;;;;;;;;;4996691;28;20033;-70
2023/04/13 12:15:29;;;;;;;12.05;2.33;;;10.40;99.90;;;;;;4995034;28;20069;-70
2023/04/13 12:17:56;;;;;;;7.05;2.20;;;;;;;;;;4992504;28;20059;-70
2023/04/13 12:20:23;;;;;;;13.02;3.10;;;;;;;;;;4973722;28;20105;-70
2023/04/13 12:22:49;;;;;;;14.50;2.70;;;;;;;;;;5001974;28;20674;-70
2023/04/13 12:25:19;;;;;;;11.43;1.80;;;10.30;99.90;;;;;;4957873;28;20074;-70
2023/04/13 12:27:45;;;;;;;9.75;2.38;;;;;;;;;;4985163;28;20053;-70
2023/04/13 12:30:12;;;;;;;9.75;2.33;;;;;;;;;;4953517;28;20046;-70
2023/04/13 12:32:48;;;;;;;8.60;2.10;;;;;;;;;;4960403;28;20046;-70
2023/04/13 12:35:15;;;;;;;16.35;4.63;;;;;;;;;;4996341;28;20045;-70
2023/04/13 12:37:41;;;;;;;12.05;2.80;;;;;;;;;;4976060;28;20048;-70
2023/04/13 12:40:15;;;;;;;8.40;2.53;;;10.80;99.90;;;;;;4999590;28;20046;-70
2023/04/13 12:42:44;;;;;;;7.88;2.22;;;;;;;;;;4995838;28;20034;-70
2023/04/13 12:45:10;;;;;;;10.40;3.17;;;;;;;;;;4977586;28;20521;-70
2023/04/13 12:47:37;;;;;;;10.15;2.35;;;;;;;;;;4974923;28;20145;-70
2023/04/13 12:50:07;;;;;;;11.02;1.90;;;11.50;99.90;;;;;;4991781;28;20158;-70
2023/04/13 12:52:33;;;;;;;9.85;3.63;;;;;;;;;;4978121;28;20069;-70
2023/04/13 12:55:00;;;;;;;8.00;2.10;;;;;;;;;;4975366;28;20181;-70
2023/04/13 12:57:27;;;;;;;14.05;2.30;;;11.00;99.90;;;;;;4975216;28;20046;-70
2023/04/13 12:59:53;;;;;;;8.10;1.98;;;;;;;;;;4977590;28;20046;-70
2023/04/13 13:02:21;;;;;;;7.57;2.55;;;11.10;99.90;;;;;;4977402;28;20057;-70
2023/04/13 13:04:47;;;;;;;12.45;2.22;;;10.90;99.90;;;;;;4984003;28;20045;-70
2023/04/13 13:07:12;;;;;;;11.35;2.70;;;;;;;;;;4980175;28;20072;-70
2023/04/13 13:09:39;;;;;;;9.18;2.17;;;;;;;;;;4995861;28;20052;-70
2023/04/13 13:12:04;;;;;;;11.20;2.20;;;10.60;99.90;;;;;;4974482;28;20037;-70
2023/04/13 13:14:31;;;;;;;13.02;2.58;;;;;;;;;;4992312;28;20046;-70
2023/04/13 13:16:56;;;;;;;7.22;2.22;;;10.70;99.90;;;;;;4978293;28;20389;-70
2023/04/13 13:19:22;;;;;;;13.15;2.20;;;;;;;;;;4978283;28;20049;-70
2023/04/13 13:21:48;;;;;;;9.10;2.30;;;;;;;;;;4994093;28;20042;-70
2023/04/13 13:24:14;;;;;;;9.48;2.33;;;;;;;;;;4979577;28;20504;-70
2023/04/13 13:26:40;;;;;;;16.52;2.45;;;;;;;;;;4972813;28;20042;-70
2023/04/13 13:29:06;;;;;;;10.32;2.35;;;;;;;;;;4992281;28;20145;-70
2023/04/13 13:31:32;;;;;;;7.50;1.80;;;10.80;99.90;;;;;;4994307;28;20030;-70
2023/04/13 13:33:58;;;;;;;11.80;2.55;;;;;;;;;;4975989;28;20121;-70
2023/04/13 13:36:23;;;;;;;8.70;2.35;;;;;;;;;;4996579;28;20041;-70
2023/04/13 13:38:50;;;;;;;7.05;2.15;;;;;;;;;;4994907;28;20126;-70
2023/04/13 13:41:16;;;;;;;8.10;2.75;;;;;;;;;;4979641;28;20503;-70
2023/04/13 13:43:41;;;;;;;8.73;2.03;;;11.00;99.90;;;;;;4979106;28;20039;-70
2023/04/13 13:46:07;;;;;;;12.63;2.97;;;11.50;99.90;;;;;;4988803;28;20038;-70
2023/04/13 13:48:33;;;;;;;13.07;3.03;;;;;;;;;;4977168;28;20039;-70
2023/04/13 13:50:59;;;;;;;6.68;2.08;;;;;;;;;;4961985;28;20042;-70
2023/04/13 13:53:25;;;;;;;8.40;2.10;;;;;;;;;;4980405;28;20072;-70
2023/04/13 13:55:51;;;;;;;5.88;1.73;;;;;;;;;;4984064;28;20062;-70
2023/04/13 13:58:17;;;;;;;8.93;2.40;;;;;;;;;;4975027;28;20050;-70
2023/04/13 14:00:42;;;;;;;10.88;2.13;;;11.30;99.90;;;;;;4980736;28;20089;-70
2023/04/13 14:03:08;;;;;;;8.88;2.00;;;;;;;;;;4976422;28;20054;-70
2023/04/13 14:05:34;;;;;;;7.20;1.50;;;;;;;;;;4985682;28;20149;-70
2023/04/13 14:08:00;;;;;;;13.23;1.80;;;11.20;99.90;;;;;;4985379;28;20069;-70
2023/04/13 14:10:26;;;;;;;10.10;1.75;;;;;;;;;;4983259;28;20799;-70
2023/04/13 14:12:54;;;;;;;7.47;1.88;;;;;;;;;;4983310;28;20496;-70
2023/04/13 14:15:20;;;;;;;9.93;1.77;;;;;;;;;;5004655;28;20081;-70
2023/04/13 14:17:46;;;;;;;10.82;3.70;;;;;;;;;;5000477;28;20050;-70
2023/04/13 14:20:12;;;;;;;9.88;2.28;;;;;;;;;;4995355;28;20103;-70
2023/04/13 14:22:40;;;;;;;9.18;1.95;;;11.50;99.90;;;;;;4976976;28;20042;-70